Time;durP1;ratioP1;P1;durP2;ratioP2;P2;SDS_P1;SDS_P2;PMS_P1;PMS_P2;Temp;Humidity;BMP_temperature;BMP_pressure;BME280_temperature;BME280_humidity;BME280_pressure;Samples;Min_cycle;Max_cycle;Signal;HPM_P1;HPM_P2
2022/01/26 00:05:43;;;;;;;;;;;;;;;;;;5117177;28;19950;-79
2022/01/26 00:06:32;;;;;;;;;;;;;;;;;;5117522;28;19990;-80
2022/01/26 00:08:57;;;;;;;;;;;;;;;;;;5117540;28;20367;-78
2022/01/26 00:11:23;;;;;;;;;;;;;;;;;;5117417;28;20014;-79
2022/01/26 00:13:49;;;;;;;;;;;;;;;;;;5117364;28;19916;-78
2022/01/26 00:16:28;;;;;;;;;;;;;;;;;;5117676;28;19923;-79
2022/01/26 00:18:59;;;;;;;;;;;;;;;;;;5117303;28;20015;-79
2022/01/26 00:21:29;;;;;;;;;;;;;;;;;;5117222;28;19916;-79
2022/01/26 00:29:23;;;;;;;;;;;;;;;;;;5117364;28;20370;-78
2022/01/26 00:40:20;;;;;;;;;;;;;;;;;;5117237;28;20373;-81
2022/01/26 00:42:48;;;;;;;;;;;;;;;;;;5117242;28;20069;-80
2022/01/26 00:45:20;;;;;;;;;;;;;;;;;;5115889;28;19916;-80
2022/01/26 00:47:45;;;;;;;;;;;;;;;;;;5117154;28;19999;-79
2022/01/26 00:50:12;;;;;;;;;;;;;;;;;;5132658;28;19916;-80
2022/01/26 00:52:42;;;;;;;;;;;;;;;;;;5128787;27;20002;-78
2022/01/26 00:55:13;;;;;;;;;;;;;;;;;;5115874;28;20394;-82
2022/01/26 00:57:39;;;;;;;;;;;;;;;;;;5116686;28;20390;-79
2022/01/26 01:00:09;;;;;;;;;;;;;;;;;;5116607;28;19916;-79
2022/01/26 01:02:34;;;;;;;;;;;;;;;;;;5116495;28;20004;-82
2022/01/26 01:05:03;;;;;;;;;;;;;;;;;;5116414;28;19919;-79
2022/01/26 01:07:34;;;;;;;;;;;;;;;;;;5115875;28;19965;-79
2022/01/26 01:09:59;;;;;;;;;;;;;;;;;;5116239;28;19919;-79
2022/01/26 01:12:25;;;;;;;;;;;;;;;;;;5116135;28;19961;-79
2022/01/26 01:14:50;;;;;;;;;;;;;;;;;;5115864;28;20299;-80
2022/01/26 01:17:23;;;;;;;;;;;;;;;;;;5116151;28;20014;-79
2022/01/26 01:20:09;;;;;;;;;;;;;;;;;;5115724;28;19968;-79
2022/01/26 01:23:07;;;;;;;;;;;;;;;;;;5115938;28;19918;-79
2022/01/26 01:26:07;;;;;;;;;;;;;;;;;;5115981;28;19955;-79
2022/01/26 01:31:11;;;;;;;;;;;;;;;;;;5115929;28;19916;-79
2022/01/26 01:33:43;;;;;;;;;;;;;;;;;;5115668;28;19912;-79
2022/01/26 01:36:10;;;;;;;;;;;;;;;;;;5115812;28;19915;-79
2022/01/26 01:38:39;;;;;;;;;;;;;;;;;;5115537;28;19916;-79
2022/01/26 01:41:05;;;;;;;;;;;;;;;;;;5115625;28;20363;-79
2022/01/26 01:43:30;;;;;;;;;;;;;;;;;;5115655;28;19957;-79
2022/01/26 01:45:56;;;;;;;;;;;;;;;;;;5115448;28;20007;-79
2022/01/26 01:48:26;;;;;;;;;;;;;;;;;;5115463;28;19919;-78
2022/01/26 01:50:53;;;;;;;;;;;;;;;;;;5115406;28;19922;-78
2022/01/26 01:53:19;;;;;;;;;;;;;;;;;;5115527;28;19986;-79
2022/01/26 01:55:50;;;;;;;;;;;;;;;;;;5115266;28;19955;-79
2022/01/26 01:58:18;;;;;;;;;;;;;;;;;;5115312;28;20006;-79
2022/01/26 02:00:44;;;;;;;;;;;;;;;;;;5113605;28;20363;-78
2022/01/26 02:03:10;;;;;;;;;;;;;;;;;;5115379;28;19926;-79
2022/01/26 02:05:35;;;;;;;;;;;;;;;;;;5115185;28;20004;-79
2022/01/26 02:08:01;;;;;;;;;;;;;;;;;;5114915;28;19920;-79
2022/01/26 02:10:29;;;;;;;;;;;;;;;;;;5114773;28;20007;-78
2022/01/26 02:12:56;;;;;;;;;;;;;;;;;;5115084;28;19911;-78
2022/01/26 02:15:32;;;;;;;;;;;;;;;;;;5115274;28;19922;-80
2022/01/26 02:56:03;;;;;;;;;;;;;;;;;;5114517;28;19916;-78
2022/01/26 03:09:30;;;;;;;;;;;;;;;;;;5071533;28;19917;-79
2022/01/26 03:11:57;;;;;;;;;;;;;;;;;;5071458;28;20407;-79
2022/01/26 03:16:57;;;;;;;;;;;;;;;;;;5071463;28;19927;-80
2022/01/26 03:19:33;;;;;;;;;;;;;;;;;;5071428;28;19923;-81
2022/01/26 03:30:02;;;;;;;;;;;;;;;;;;5073291;28;19963;-81
2022/01/26 03:34:56;;;;;;;;;;;;;;;;;;5075425;28;19920;-86
2022/01/26 03:37:26;;;;;;;;;;;;;;;;;;5075237;28;19929;-81
2022/01/26 03:39:52;;;;;;;;;;;;;;;;;;5075318;28;19916;-82
2022/01/26 03:42:18;;;;;;;;;;;;;;;;;;5075360;28;20328;-81
2022/01/26 03:44:43;;;;;;;;;;;;;;;;;;5077869;28;19920;-82
2022/01/26 03:47:09;;;;;;;;;;;;;;;;;;5118251;28;19916;-81
2022/01/26 03:49:35;;;;;;;;;;;;;;;;;;5117917;28;19916;-81
2022/01/26 03:52:01;;;;;;;;;;;;;;;;;;5117751;28;19923;-81
2022/01/26 03:54:27;;;;;;;;;;;;;;;;;;5117767;28;20283;-84
2022/01/26 03:56:52;;;;;;;;;;;;;;;;;;5117599;28;19915;-85
2022/01/26 03:59:18;;;;;;;;;;;;;;;;;;5116545;28;19916;-81
2022/01/26 04:01:43;;;;;;;;;;;;;;;;;;5117366;28;19973;-81
2022/01/26 04:04:09;;;;;;;;;;;;;;;;;;5117757;28;19916;-81
2022/01/26 04:06:35;;;;;;;;;;;;;;;;;;5117259;28;19926;-81
2022/01/26 04:09:00;;;;;;;;;;;;;;;;;;5117462;28;20374;-80
2022/01/26 04:11:41;;;;;;;;;;;;;;;;;;5117623;28;19995;-81
2022/01/26 04:14:08;;;;;;;;;;;;;;;;;;5117189;27;19920;-82
2022/01/26 04:16:35;;;;;;;;;;;;;;;;;;5117254;27;20010;-88
2022/01/26 04:19:01;;;;;;;;;;;;;;;;;;5117529;27;20306;-81
2022/01/26 04:21:41;;;;;;;;;;;;;;;;;;5117372;28;19937;-86
2022/01/26 04:24:15;;;;;;;;;;;;;;;;;;5116014;28;19916;-81
2022/01/26 04:26:56;;;;;;;;;;;;;;;;;;5117109;28;19945;-80
2022/01/26 04:29:26;;;;;;;;;;;;;;;;;;5117197;28;20413;-80
2022/01/26 04:31:52;;;;;;;;;;;;;;;;;;5117034;28;19962;-80
2022/01/26 04:34:17;;;;;;;;;;;;;;;;;;5117024;28;19916;-80
2022/01/26 04:36:50;;;;;;;;;;;;;;;;;;5116390;28;20011;-80
2022/01/26 04:39:21;;;;;;;;;;;;;;;;;;5114451;28;20331;-80
2022/01/26 04:41:52;;;;;;;;;;;;;;;;;;5118382;28;19916;-80
2022/01/26 04:44:31;;;;;;;;;;;;;;;;;;5136436;28;19935;-81
2022/01/26 04:46:56;;;;;;;;;;;;;;;;;;5123989;28;19915;-80
2022/01/26 04:49:22;;;;;;;;;;;;;;;;;;5116856;28;20332;-80
2022/01/26 04:51:47;;;;;;;;;;;;;;;;;;5116287;28;19923;-80
2022/01/26 04:54:13;;;;;;;;;;;;;;;;;;5116296;28;19923;-86
2022/01/26 04:56:38;;;;;;;;;;;;;;;;;;5116642;28;20256;-83
2022/01/26 04:59:04;;;;;;;;;;;;;;;;;;5115520;28;19968;-82
2022/01/26 05:01:29;;;;;;;;;;;;;;;;;;5116717;28;19919;-81
2022/01/26 05:03:55;;;;;;;;;;;;;;;;;;5116133;28;19943;-85
2022/01/26 05:06:21;;;;;;;;;;;;;;;;;;5116565;28;19919;-81
2022/01/26 05:08:46;;;;;;;;;;;;;;;;;;5116395;28;19926;-86
2022/01/26 05:11:17;;;;;;;;;;;;;;;;;;5116484;28;19969;-86
2022/01/26 05:13:42;;;;;;;;;;;;;;;;;;5116312;28;19919;-83
2022/01/26 05:16:09;;;;;;;;;;;;;;;;;;5116304;28;19916;-84
2022/01/26 05:18:34;;;;;;;;;;;;;;;;;;5115845;28;19923;-84
2022/01/26 05:21:00;;;;;;;;;;;;;;;;;;5116065;28;19919;-83
2022/01/26 05:23:25;;;;;;;;;;;;;;;;;;5116376;27;19976;-81
2022/01/26 05:25:51;;;;;;;;;;;;;;;;;;5116025;28;19922;-85
2022/01/26 05:28:17;;;;;;;;;;;;;;;;;;5116124;28;19968;-83
2022/01/26 05:30:42;;;;;;;;;;;;;;;;;;5115951;28;19923;-83
2022/01/26 05:33:07;;;;;;;;;;;;;;;;;;5116163;28;20394;-85
2022/01/26 05:35:33;;;;;;;;;;;;;;;;;;5115932;28;19923;-84
2022/01/26 05:37:59;;;;;;;;;;;;;;;;;;5115651;28;19920;-81
2022/01/26 05:40:25;;;;;;;;;;;;;;;;;;5115547;28;20329;-82
2022/01/26 05:42:51;;;;;;;;;;;;;;;;;;5111337;28;20011;-82
2022/01/26 05:45:26;;;;;;;;;;;;;;;;;;5111887;28;20019;-82
2022/01/26 05:47:52;;;;;;;;;;;;;;;;;;5114651;28;19923;-82
2022/01/26 05:50:19;;;;;;;;;;;;;;;;;;5115559;28;19916;-82
2022/01/26 05:52:45;;;;;;;;;;;;;;;;;;5115643;28;20381;-81
2022/01/26 05:55:10;;;;;;;;;;;;;;;;;;5115605;28;19920;-83
2022/01/26 05:57:35;;;;;;;;;;;;;;;;;;5115472;28;19916;-80
2022/01/26 06:00:01;;;;;;;;;;;;;;;;;;5110339;28;20003;-83
2022/01/26 06:02:27;;;;;;;;;;;;;;;;;;5103683;28;19966;-83
2022/01/26 06:04:52;;;;;;;;;;;;;;;;;;5107899;28;19968;-81
2022/01/26 06:07:18;;;;;;;;;;;;;;;;;;5106130;28;20359;-80
2022/01/26 06:09:43;;;;;;;;;;;;;;;;;;5105322;28;19943;-80
2022/01/26 06:12:09;;;;;;;;;;;;;;;;;;5110692;28;19984;-80
2022/01/26 06:14:35;;;;;;;;;;;;;;;;;;5114077;28;19916;-81
2022/01/26 06:17:01;;;;;;;;;;;;;;;;;;5114074;28;19978;-80
2022/01/26 06:19:26;;;;;;;;;;;;;;;;;;5114279;28;19966;-81
2022/01/26 06:21:51;;;;;;;;;;;;;;;;;;5112156;28;19973;-81
2022/01/26 06:24:17;;;;;;;;;;;;;;;;;;5113807;28;19922;-80
2022/01/26 06:26:42;;;;;;;;;;;;;;;;;;5113827;28;19944;-81
2022/01/26 06:29:08;;;;;;;;;;;;;;;;;;5113949;28;19911;-81
2022/01/26 06:31:34;;;;;;;;;;;;;;;;;;5113110;28;20346;-81
2022/01/26 06:34:02;;;;;;;;;;;;;;;;;;5110029;28;19923;-80
2022/01/26 06:36:27;;;;;;;;;;;;;;;;;;5108314;28;19935;-80
2022/01/26 06:38:53;;;;;;;;;;;;;;;;;;5113433;28;19920;-80
2022/01/26 06:41:24;;;;;;;;;;;;;;;;;;5112099;28;20355;-81
2022/01/26 06:43:54;;;;;;;;;;;;;;;;;;5105927;28;20291;-81
2022/01/26 06:46:40;;;;;;;;;;;;;;;;;;5099966;27;20010;-81
2022/01/26 06:52:03;;;;;;;;;;;;;;;;;;5092960;28;19999;-86
2022/01/26 06:54:34;;;;;;;;;;;;;;;;;;5097635;28;20456;-81
2022/01/26 06:57:00;;;;;;;;;;;;;;;;;;5097166;28;20535;-81
2022/01/26 06:59:25;;;;;;;;;;;;;;;;;;5099302;28;19920;-81
2022/01/26 07:01:54;;;;;;;;;;;;;;;;;;5114569;27;20386;-82
2022/01/26 07:04:23;;;;;;;;;;;;;;;;;;5108400;28;19927;-90
2022/01/26 07:06:48;;;;;;;;;;;;;;;;;;5107602;28;19920;-80
2022/01/26 07:09:16;;;;;;;;;;;;;;;;;;5100043;28;20312;-80
2022/01/26 07:11:45;;;;;;;;;;;;;;;;;;5101013;28;19985;-82
2022/01/26 07:14:22;;;;;;;;;;;;;;;;;;5098709;28;19931;-82
2022/01/26 07:19:54;;;;;;;;;;;;;;;;;;5101895;28;19922;-81
2022/01/26 07:22:20;;;;;;;;;;;;;;;;;;5107399;28;19919;-83
2022/01/26 07:24:45;;;;;;;;;;;;;;;;;;5098995;28;21854;-83
2022/01/26 07:27:11;;;;;;;;;;;;;;;;;;5097229;28;19924;-82
2022/01/26 07:29:36;;;;;;;;;;;;;;;;;;5087651;28;20354;-81
2022/01/26 07:32:04;;;;;;;;;;;;;;;;;;5089376;28;20426;-82
2022/01/26 07:34:30;;;;;;;;;;;;;;;;;;5091098;28;19920;-81
2022/01/26 07:37:00;;;;;;;;;;;;;;;;;;5096089;28;19922;-82
2022/01/26 07:39:30;;;;;;;;;;;;;;;;;;5096317;28;19915;-82
2022/01/26 07:41:55;;;;;;;;;;;;;;;;;;5085018;28;19923;-81
2022/01/26 07:44:21;;;;;;;;;;;;;;;;;;5103250;28;19916;-81
2022/01/26 07:46:47;;;;;;;;;;;;;;;;;;5110134;28;20076;-83
2022/01/26 07:49:12;;;;;;;;;;;;;;;;;;5091290;28;19923;-81
2022/01/26 07:51:37;;;;;;;;;;;;;;;;;;5091352;28;19997;-81
2022/01/26 07:54:03;;;;;;;;;;;;;;;;;;5091340;28;19970;-81
2022/01/26 07:56:29;;;;;;;;;;;;;;;;;;5096708;28;19923;-82
2022/01/26 07:58:55;;;;;;;;;;;;;;;;;;5124188;28;19961;-81
2022/01/26 08:01:21;;;;;;;;;;;;;;;;;;5113778;28;19919;-82
2022/01/26 08:03:47;;;;;;;;;;;;;;;;;;5113846;28;19916;-86
2022/01/26 08:06:16;;;;;;;;;;;;;;;;;;5114299;28;19938;-82
2022/01/26 08:08:42;;;;;;;;;;;;;;;;;;5114022;28;19938;-81
2022/01/26 08:11:07;;;;;;;;;;;;;;;;;;5113716;28;20010;-82
2022/01/26 08:13:33;;;;;;;;;;;;;;;;;;5113888;28;19915;-81
2022/01/26 08:15:58;;;;;;;;;;;;;;;;;;5103942;28;19965;-81
2022/01/26 08:18:24;;;;;;;;;;;;;;;;;;5117248;28;19916;-81
2022/01/26 08:20:50;;;;;;;;;;;;;;;;;;5117416;28;20332;-81
2022/01/26 08:23:17;;;;;;;;;;;;;;;;;;5117549;28;19916;-81
2022/01/26 08:25:42;;;;;;;;;;;;;;;;;;5117243;28;20312;-81
2022/01/26 08:28:14;;;;;;;;;;;;;;;;;;5117327;28;19916;-82
2022/01/26 08:30:41;;;;;;;;;;;;;;;;;;5117548;27;19943;-81
2022/01/26 08:33:07;;;;;;;;;;;;;;;;;;5117140;28;19927;-83
2022/01/26 08:35:33;;;;;;;;;;;;;;;;;;5117155;28;19920;-82
2022/01/26 08:37:58;;;;;;;;;;;;;;;;;;5115718;28;19926;-82
2022/01/26 08:40:25;;;;;;;;;;;;;;;;;;5117312;28;20018;-83
2022/01/26 08:42:51;;;;;;;;;;;;;;;;;;5117797;28;19920;-84
2022/01/26 08:45:16;;;;;;;;;;;;;;;;;;5120264;28;20335;-81
2022/01/26 08:47:42;;;;;;;;;;;;;;;;;;5137955;28;19916;-82
2022/01/26 08:50:07;;;;;;;;;;;;;;;;;;5134667;28;20053;-83
2022/01/26 08:52:33;;;;;;;;;;;;;;;;;;5119219;28;19938;-85
2022/01/26 08:54:59;;;;;;;;;;;;;;;;;;5118690;28;19938;-84
2022/01/26 08:57:24;;;;;;;;;;;;;;;;;;5118009;28;20351;-85
2022/01/26 08:59:49;;;;;;;;;;;;;;;;;;5115983;28;19923;-84
2022/01/26 09:02:15;;;;;;;;;;;;;;;;;;5105120;28;19926;-85
2022/01/26 09:04:40;;;;;;;;;;;;;;;;;;5117830;28;19954;-85
2022/01/26 09:07:06;;;;;;;;;;;;;;;;;;5112240;28;19943;-84
2022/01/26 09:09:42;;;;;;;;;;;;;;;;;;5103698;28;20006;-83
2022/01/26 09:12:09;;;;;;;;;;;;;;;;;;5108371;28;20287;-83
2022/01/26 09:14:34;;;;;;;;;;;;;;;;;;5105811;28;19974;-82
2022/01/26 09:17:02;;;;;;;;;;;;;;;;;;5106829;28;19915;-82
2022/01/26 09:19:29;;;;;;;;;;;;;;;;;;5107364;28;19916;-82
2022/01/26 09:21:56;;;;;;;;;;;;;;;;;;5112291;27;19912;-81
2022/01/26 09:24:22;;;;;;;;;;;;;;;;;;5114655;28;20255;-84
2022/01/26 09:26:47;;;;;;;;;;;;;;;;;;5115022;28;19976;-84
2022/01/26 09:29:13;;;;;;;;;;;;;;;;;;5116784;28;19911;-84
2022/01/26 09:31:38;;;;;;;;;;;;;;;;;;5116672;28;19916;-86
2022/01/26 09:34:04;;;;;;;;;;;;;;;;;;5116281;28;20057;-83
2022/01/26 09:36:30;;;;;;;;;;;;;;;;;;5113915;28;19980;-83
2022/01/26 09:38:56;;;;;;;;;;;;;;;;;;5111340;28;19923;-86
2022/01/26 09:41:22;;;;;;;;;;;;;;;;;;5110109;28;20272;-82
2022/01/26 09:43:48;;;;;;;;;;;;;;;;;;5113290;28;19922;-83
2022/01/26 09:46:13;;;;;;;;;;;;;;;;;;5112811;28;19962;-82
2022/01/26 09:48:39;;;;;;;;;;;;;;;;;;5112176;28;20355;-83
2022/01/26 09:51:05;;;;;;;;;;;;;;;;;;5114626;28;19915;-84
2022/01/26 09:53:33;;;;;;;;;;;;;;;;;;5111264;28;19946;-83
2022/01/26 09:55:58;;;;;;;;;;;;;;;;;;5112503;28;20436;-82
2022/01/26 09:58:24;;;;;;;;;;;;;;;;;;5111155;28;19989;-83
2022/01/26 10:00:57;;;;;;;;;;;;;;;;;;5109955;28;19930;-83
2022/01/26 10:03:25;;;;;;;;;;;;;;;;;;5114437;28;19915;-82
2022/01/26 10:05:50;;;;;;;;;;;;;;;;;;5115339;28;19973;-82
2022/01/26 10:18:56;;;;;;;;;;;;;;;;;;5113014;28;20367;-82
2022/01/26 10:21:23;;;;;;;;;;;;;;;;;;5113028;27;19959;-83
2022/01/26 10:23:49;;;;;;;;;;;;;;;;;;5115091;28;19916;-82
2022/01/26 10:26:19;;;;;;;;;;;;;;;;;;5113132;28;19919;-83
2022/01/26 10:28:52;;;;;;;;;;;;;;;;;;5114947;28;20294;-82
2022/01/26 10:31:20;;;;;;;;;;;;;;;;;;5111484;28;19934;-81
2022/01/26 10:33:54;;;;;;;;;;;;;;;;;;5112837;28;20002;-84
2022/01/26 10:36:20;;;;;;;;;;;;;;;;;;5111912;28;20018;-82
2022/01/26 10:38:55;;;;;;;;;;;;;;;;;;5115398;28;19959;-82
2022/01/26 10:41:21;;;;;;;;;;;;;;;;;;5114783;28;19920;-82
2022/01/26 10:43:51;;;;;;;;;;;;;;;;;;5115036;28;20307;-83
2022/01/26 10:46:26;;;;;;;;;;;;;;;;;;5114524;28;20328;-83
2022/01/26 10:49:06;;;;;;;;;;;;;;;;;;5115809;28;19916;-83
2022/01/26 10:51:51;;;;;;;;;;;;;;;;;;5113711;28;19951;-86
2022/01/26 10:54:23;;;;;;;;;;;;;;;;;;5110630;28;19915;-84
2022/01/26 10:56:49;;;;;;;;;;;;;;;;;;5103296;27;19920;-84
2022/01/26 10:59:15;;;;;;;;;;;;;;;;;;5099962;28;20024;-83
2022/01/26 11:01:40;;;;;;;;;;;;;;;;;;5100097;28;19924;-84
2022/01/26 11:04:06;;;;;;;;;;;;;;;;;;5095197;28;19923;-84
2022/01/26 11:06:32;;;;;;;;;;;;;;;;;;5090716;28;19985;-84
2022/01/26 11:09:02;;;;;;;;;;;;;;;;;;5108743;27;20460;-84
2022/01/26 11:11:27;;;;;;;;;;;;;;;;;;5092454;28;20008;-85
2022/01/26 11:13:53;;;;;;;;;;;;;;;;;;5100393;28;20035;-85
2022/01/26 11:16:19;;;;;;;;;;;;;;;;;;5105297;28;19924;-86
2022/01/26 11:18:44;;;;;;;;;;;;;;;;;;5110160;28;19920;-83
2022/01/26 11:21:14;;;;;;;;;;;;;;;;;;5105818;28;19953;-84
2022/01/26 11:23:40;;;;;;;;;;;;;;;;;;5102085;28;19935;-84
2022/01/26 11:26:06;;;;;;;;;;;;;;;;;;5102578;28;19927;-83
2022/01/26 11:28:32;;;;;;;;;;;;;;;;;;5100361;28;19927;-85
2022/01/26 11:31:02;;;;;;;;;;;;;;;;;;5105562;28;19919;-81
2022/01/26 11:33:29;;;;;;;;;;;;;;;;;;5099633;28;19963;-85
2022/01/26 11:35:56;;;;;;;;;;;;;;;;;;5103571;28;19920;-85
2022/01/26 11:46:50;;;;;;;;;;;;;;;;;;5102926;28;20344;-84
2022/01/26 11:49:21;;;;;;;;;;;;;;;;;;5097706;28;20209;-83
2022/01/26 11:51:48;;;;;;;;;;;;;;;;;;5105916;28;19922;-82
2022/01/26 11:54:17;;;;;;;;;;;;;;;;;;5102920;28;19923;-83
2022/01/26 11:57:02;;;;;;;;;;;;;;;;;;5100399;28;19923;-83
2022/01/26 11:59:31;;;;;;;;;;;;;;;;;;5105306;27;20035;-83
2022/01/26 12:02:20;;;;;;;;;;;;;;;;;;5101201;28;19973;-85
2022/01/26 12:04:55;;;;;;;;;;;;;;;;;;5103377;28;20015;-84
2022/01/26 12:07:23;;;;;;;;;;;;;;;;;;5102514;28;19931;-83
2022/01/26 12:09:49;;;;;;;;;;;;;;;;;;5101574;28;20272;-83
2022/01/26 12:12:18;;;;;;;;;;;;;;;;;;5104826;28;19978;-75
2022/01/26 12:14:55;;;;;;;;;;;;;;;;;;5103481;27;20371;-76
2022/01/26 12:17:24;;;;;;;;;;;;;;;;;;5111759;28;19928;-76
2022/01/26 12:20:09;;;;;;;;;;;;;;;;;;5105206;28;19938;-76
2022/01/26 12:36:23;;;;;;;;;;;;;;;;;;5114451;28;20014;-78
2022/01/26 12:38:56;;;;;;;;;;;;;;;;;;5111449;28;19920;-75
2022/01/26 12:43:55;;;;;;;;;;;;;;;;;;5115799;28;19982;-75
2022/01/26 12:46:24;;;;;;;;;;;;;;;;;;5107267;28;20287;-75
2022/01/26 12:48:51;;;;;;;;;;;;;;;;;;5109129;28;19928;-76
2022/01/26 12:51:17;;;;;;;;;;;;;;;;;;5107559;28;19928;-75
2022/01/26 12:53:42;;;;;;;;;;;;;;;;;;5115608;28;19920;-76
2022/01/26 12:56:12;;;;;;;;;;;;;;;;;;5115300;28;19930;-75
2022/01/26 12:58:39;;;;;;;;;;;;;;;;;;5115339;28;19970;-75
2022/01/26 13:01:05;;;;;;;;;;;;;;;;;;5115420;28;19916;-76
2022/01/26 13:03:32;;;;;;;;;;;;;;;;;;5108341;28;20291;-75
2022/01/26 13:06:04;;;;;;;;;;;;;;;;;;5109922;28;19927;-76
2022/01/26 13:08:47;;;;;;;;;;;;;;;;;;5104647;28;19935;-76
2022/01/26 13:11:12;;;;;;;;;;;;;;;;;;5113426;28;19924;-75
2022/01/26 13:13:38;;;;;;;;;;;;;;;;;;5115257;28;20285;-75
2022/01/26 13:16:23;;;;;;;;;;;;;;;;;;5112526;28;19920;-74
2022/01/26 13:24:08;;;;;;;;;;;;;;;;;;5105439;28;19982;-75
2022/01/26 13:26:51;;;;;;;;;;;;;;;;;;5099934;28;19920;-76
2022/01/26 13:35:11;;;;;;;;;;;;;;;;;;5117741;28;20013;-76
2022/01/26 13:46:41;;;;;;;;;;;;;;;;;;5029203;28;19928;-75
2022/01/26 13:51:41;;;;;;;;;;;;;;;;;;5032350;28;19921;-75
2022/01/26 13:56:41;;;;;;;;;;;;;;;;;;5030126;28;20340;-74
2022/01/26 13:59:22;;;;;;;;;;;;;;;;;;5027010;28;20081;-74
2022/01/26 14:01:49;;;;;;;;;;;;;;;;;;5027072;28;19925;-75
2022/01/26 14:04:16;;;;;;;;;;;;;;;;;;5024769;28;19925;-75
2022/01/26 14:06:42;;;;;;;;;;;;;;;;;;5028489;28;20071;-76
2022/01/26 14:09:07;;;;;;;;;;;;;;;;;;5046721;28;20011;-75
2022/01/26 14:11:33;;;;;;;;;;;;;;;;;;5044691;28;19917;-75
2022/01/26 14:14:00;;;;;;;;;;;;;;;;;;5049905;28;19921;-76
2022/01/26 14:16:26;;;;;;;;;;;;;;;;;;5061888;28;20428;-76
2022/01/26 14:21:32;;;;;;;;;;;;;;;;;;5104207;28;19927;-74
2022/01/26 14:26:29;;;;;;;;;;;;;;;;;;5110609;28;20014;-74
2022/01/26 14:28:54;;;;;;;;;;;;;;;;;;5112203;28;19926;-75
2022/01/26 14:31:28;;;;;;;;;;;;;;;;;;5114129;27;19919;-73
2022/01/26 14:36:45;;;;;;;;;;;;;;;;;;5113227;28;20354;-74
2022/01/26 15:08:49;;;;;;;;;;;;;;;;;;5099523;28;19973;-75
2022/01/26 15:31:01;;;;;;;;;;;;;;;;;;5111046;28;20390;-75
2022/01/26 15:33:33;;;;;;;;;;;;;;;;;;5110241;28;19920;-76
2022/01/26 15:48:50;;;;;;;;;;;;;;;;;;5112442;28;19923;-75
2022/01/26 16:19:39;;;;;;;;;;;;;;;;;;5108157;28;19927;-77
2022/01/26 17:55:08;;;;;;;;;;;;;;;;;;5110303;28;20401;-77
2022/01/26 17:55:16;;;;;;;;;;;;;;;;;;5106030;28;20069;-76
2022/01/26 18:25:51;;;;;;;;;;;;;;;;;;5084264;28;19970;-74
2022/01/26 18:26:51;;;;;;;;;;;;;;;;;;5086148;28;19927;-76
2022/01/26 18:32:12;;;;;;;;;;;;;;;;;;5103572;28;19931;-76
2022/01/26 18:51:03;;;;;;;;;;;;;;;;;;5110297;28;19997;-77
2022/01/26 18:53:28;;;;;;;;;;;;;;;;;;5108498;28;19920;-77
2022/01/26 18:55:54;;;;;;;;;;;;;;;;;;5099773;28;20297;-77
2022/01/26 18:58:19;;;;;;;;;;;;;;;;;;5103226;28;20386;-77
2022/01/26 19:00:45;;;;;;;;;;;;;;;;;;5098698;28;19966;-77
2022/01/26 19:03:11;;;;;;;;;;;;;;;;;;5106215;28;19930;-76
2022/01/26 19:05:36;;;;;;;;;;;;;;;;;;5107979;28;19919;-77
2022/01/26 19:08:02;;;;;;;;;;;;;;;;;;5108269;28;19931;-77
2022/01/26 19:10:28;;;;;;;;;;;;;;;;;;5109006;28;20291;-75
2022/01/26 19:12:54;;;;;;;;;;;;;;;;;;5107654;28;19927;-78
2022/01/26 19:15:24;;;;;;;;;;;;;;;;;;5112266;28;19954;-77
2022/01/26 19:18:13;;;;;;;;;;;;;;;;;;5113397;28;19935;-77
2022/01/26 19:23:16;;;;;;;;;;;;;;;;;;5110816;28;19919;-78
2022/01/26 19:26:21;;;;;;;;;;;;;;;;;;5110838;28;19924;-76
2022/01/26 19:28:38;;;;;;;;;;;;;;;;;;5106237;28;19912;-78
2022/01/26 19:52:37;;;;;;;;;;;;;;;;;;5108336;28;19965;-80
2022/01/26 19:55:03;;;;;;;;;;;;;;;;;;5104008;28;20359;-77
2022/01/26 19:57:28;;;;;;;;;;;;;;;;;;5107157;28;19924;-77
2022/01/26 19:59:54;;;;;;;;;;;;;;;;;;5106699;28;19931;-77
2022/01/26 20:02:19;;;;;;;;;;;;;;;;;;5112554;28;20367;-75
2022/01/26 20:04:46;;;;;;;;;;;;;;;;;;5112582;28;20006;-76
2022/01/26 20:07:23;;;;;;;;;;;;;;;;;;5110018;28;20403;-76
2022/01/26 20:09:54;;;;;;;;;;;;;;;;;;5104787;28;20297;-74
2022/01/26 20:12:27;;;;;;;;;;;;;;;;;;5100804;28;19923;-76
2022/01/26 20:14:55;;;;;;;;;;;;;;;;;;5111594;28;20094;-77
2022/01/26 20:17:20;;;;;;;;;;;;;;;;;;5106415;28;19924;-75
2022/01/26 20:19:46;;;;;;;;;;;;;;;;;;5104528;28;19939;-76
2022/01/26 20:22:11;;;;;;;;;;;;;;;;;;5108846;28;19930;-76
2022/01/26 20:24:37;;;;;;;;;;;;;;;;;;5114692;28;19950;-77
2022/01/26 20:27:06;;;;;;;;;;;;;;;;;;5113220;28;20031;-76
2022/01/26 20:29:37;;;;;;;;;;;;;;;;;;5107900;28;19927;-77
2022/01/26 20:32:03;;;;;;;;;;;;;;;;;;5110914;28;19919;-78
2022/01/26 20:34:28;;;;;;;;;;;;;;;;;;5104852;28;19920;-76
2022/01/26 20:36:54;;;;;;;;;;;;;;;;;;5102156;28;19992;-77
2022/01/26 20:39:19;;;;;;;;;;;;;;;;;;5103167;28;20333;-76
2022/01/26 20:41:45;;;;;;;;;;;;;;;;;;5105034;28;20020;-76
2022/01/26 20:44:10;;;;;;;;;;;;;;;;;;5107765;28;20424;-76
2022/01/26 20:46:36;;;;;;;;;;;;;;;;;;5106337;28;20010;-76
2022/01/26 20:49:02;;;;;;;;;;;;;;;;;;5110021;28;19966;-77
2022/01/26 20:51:27;;;;;;;;;;;;;;;;;;5104592;28;19930;-76
2022/01/26 20:53:54;;;;;;;;;;;;;;;;;;5108174;28;19924;-77
2022/01/26 20:56:20;;;;;;;;;;;;;;;;;;5102452;28;20439;-78
2022/01/26 20:58:46;;;;;;;;;;;;;;;;;;5102031;28;19920;-78
2022/01/26 21:01:12;;;;;;;;;;;;;;;;;;5101446;28;19935;-77
2022/01/26 21:03:37;;;;;;;;;;;;;;;;;;5108330;28;19919;-78
2022/01/26 21:06:03;;;;;;;;;;;;;;;;;;5111099;28;19927;-76
2022/01/26 21:08:28;;;;;;;;;;;;;;;;;;5105745;28;19919;-76
2022/01/26 21:10:54;;;;;;;;;;;;;;;;;;5110834;28;19934;-76
2022/01/26 21:13:19;;;;;;;;;;;;;;;;;;5104653;28;19968;-77
2022/01/26 21:15:45;;;;;;;;;;;;;;;;;;5100577;28;19931;-77
2022/01/26 21:18:11;;;;;;;;;;;;;;;;;;5110457;28;19927;-77
2022/01/26 21:20:40;;;;;;;;;;;;;;;;;;5102184;28;19935;-77
2022/01/26 21:23:06;;;;;;;;;;;;;;;;;;5103878;28;19928;-78
2022/01/26 21:25:31;;;;;;;;;;;;;;;;;;5110791;28;19949;-76
2022/01/26 21:27:57;;;;;;;;;;;;;;;;;;5113885;28;19923;-76
2022/01/26 21:30:23;;;;;;;;;;;;;;;;;;5110892;28;19920;-75
2022/01/26 21:32:49;;;;;;;;;;;;;;;;;;5114486;28;19946;-76
2022/01/26 21:35:14;;;;;;;;;;;;;;;;;;5106564;28;19963;-76
2022/01/26 21:37:39;;;;;;;;;;;;;;;;;;5106736;28;20006;-76
2022/01/26 21:40:05;;;;;;;;;;;;;;;;;;5107964;28;19926;-76
2022/01/26 21:42:31;;;;;;;;;;;;;;;;;;5111107;28;20409;-76
2022/01/26 21:44:56;;;;;;;;;;;;;;;;;;5110714;28;19919;-76
2022/01/26 21:47:22;;;;;;;;;;;;;;;;;;5107711;28;20025;-76
2022/01/26 21:49:49;;;;;;;;;;;;;;;;;;5108373;28;19926;-76
2022/01/26 21:52:15;;;;;;;;;;;;;;;;;;5104753;28;19920;-76
2022/01/26 21:54:40;;;;;;;;;;;;;;;;;;5105733;28;20208;-75
2022/01/26 21:57:06;;;;;;;;;;;;;;;;;;5105592;28;19927;-76
2022/01/26 21:59:31;;;;;;;;;;;;;;;;;;5101019;28;19928;-75
2022/01/26 22:01:57;;;;;;;;;;;;;;;;;;5099083;28;19920;-76
2022/01/26 22:04:23;;;;;;;;;;;;;;;;;;5104332;28;20379;-76
2022/01/26 22:06:48;;;;;;;;;;;;;;;;;;5101714;28;19976;-76
2022/01/26 22:09:14;;;;;;;;;;;;;;;;;;5108836;28;19919;-76
2022/01/26 22:11:41;;;;;;;;;;;;;;;;;;5113358;28;19951;-75
2022/01/26 22:14:06;;;;;;;;;;;;;;;;;;5111810;28;19916;-76
2022/01/26 22:16:32;;;;;;;;;;;;;;;;;;5114926;28;20335;-76
2022/01/26 22:18:57;;;;;;;;;;;;;;;;;;5114817;28;19969;-76
2022/01/26 22:21:30;;;;;;;;;;;;;;;;;;5114837;28;19920;-75
2022/01/26 22:23:55;;;;;;;;;;;;;;;;;;5114756;28;19959;-76
2022/01/26 22:26:22;;;;;;;;;;;;;;;;;;5114867;28;20390;-75
2022/01/26 22:28:49;;;;;;;;;;;;;;;;;;5114736;28;19936;-76
2022/01/26 22:31:14;;;;;;;;;;;;;;;;;;5114542;28;19916;-76
2022/01/26 22:33:40;;;;;;;;;;;;;;;;;;5114560;28;20463;-76
2022/01/26 22:36:05;;;;;;;;;;;;;;;;;;5112429;28;20006;-76
2022/01/26 22:38:31;;;;;;;;;;;;;;;;;;5119079;28;19919;-75
2022/01/26 22:40:56;;;;;;;;;;;;;;;;;;5114607;28;20014;-76
2022/01/26 22:43:22;;;;;;;;;;;;;;;;;;5118121;28;20346;-75
2022/01/26 22:45:48;;;;;;;;;;;;;;;;;;5132225;28;19944;-76
2022/01/26 22:48:25;;;;;;;;;;;;;;;;;;5126217;28;19961;-76
2022/01/26 22:50:55;;;;;;;;;;;;;;;;;;5116170;28;19958;-76
2022/01/26 22:53:21;;;;;;;;;;;;;;;;;;5114654;28;19941;-75
2022/01/26 22:55:47;;;;;;;;;;;;;;;;;;5113089;28;20459;-76
2022/01/26 22:58:13;;;;;;;;;;;;;;;;;;5114184;28;20007;-75
2022/01/26 23:00:40;;;;;;;;;;;;;;;;;;5114299;28;19922;-75
2022/01/26 23:03:06;;;;;;;;;;;;;;;;;;5114441;28;20311;-76
2022/01/26 23:08:15;;;;;;;;;;;;;;;;;;5114054;28;20011;-76
2022/01/26 23:10:40;;;;;;;;;;;;;;;;;;5114126;28;19955;-76
2022/01/26 23:13:06;;;;;;;;;;;;;;;;;;5114950;28;19916;-76
2022/01/26 23:15:31;;;;;;;;;;;;;;;;;;5114797;28;19916;-76
2022/01/26 23:17:57;;;;;;;;;;;;;;;;;;5113850;28;20302;-76
2022/01/26 23:20:22;;;;;;;;;;;;;;;;;;5114324;28;19990;-76
2022/01/26 23:22:48;;;;;;;;;;;;;;;;;;5113935;28;19947;-76
2022/01/26 23:25:33;;;;;;;;;;;;;;;;;;5113872;28;19951;-76
2022/01/26 23:28:18;;;;;;;;;;;;;;;;;;5113771;28;19922;-75
2022/01/26 23:44:03;;;;;;;;;;;;;;;;;;5113848;28;19961;-76
2022/01/26 23:57:53;;;;;;;;;;;;;;;;;;5117798;28;20025;-76
